sensor_id;sensor_type;location;lat;lon;timestamp;P1;durP1;ratioP1;P2;durP2;ratioP2
22378;SDS011;11357;49.990;7.370;2023-09-07T00:01:08;334.65;;;153.07;;
22378;SDS011;11357;49.990;7.370;2023-09-07T00:03:35;266.40;;;133.32;;
22378;SDS011;11357;49.990;7.370;2023-09-07T00:06:05;219.13;;;112.97;;
22378;SDS011;11357;49.990;7.370;2023-09-07T00:08:31;244.05;;;143.32;;
22378;SDS011;11357;49.990;7.370;2023-09-07T00:11:06;203.43;;;99.28;;
22378;SDS011;11357;49.990;7.370;2023-09-07T00:13:33;316.02;;;147.30;;
22378;SDS011;11357;49.990;7.370;2023-09-07T00:15:59;386.45;;;167.75;;
22378;SDS011;11357;49.990;7.370;2023-09-07T00:18:25;326.35;;;166.82;;
22378;SDS011;11357;49.990;7.370;2023-09-07T00:20:52;370.63;;;139.82;;
22378;SDS011;11357;49.990;7.370;2023-09-07T00:23:17;355.98;;;202.98;;
22378;SDS011;11357;49.990;7.370;2023-09-07T00:25:44;558.75;;;288.08;;
22378;SDS011;11357;49.990;7.370;2023-09-07T00:28:10;373.60;;;184.05;;
22378;SDS011;11357;49.990;7.370;2023-09-07T00:30:36;426.98;;;197.02;;
22378;SDS011;11357;49.990;7.370;2023-09-07T00:33:02;214.35;;;138.02;;
22378;SDS011;11357;49.990;7.370;2023-09-07T00:35:27;318.85;;;141.02;;
22378;SDS011;11357;49.990;7.370;2023-09-07T00:37:53;336.30;;;175.60;;
22378;SDS011;11357;49.990;7.370;2023-09-07T00:40:19;307.70;;;156.38;;
22378;SDS011;11357;49.990;7.370;2023-09-07T00:42:45;220.57;;;99.07;;
22378;SDS011;11357;49.990;7.370;2023-09-07T00:45:11;252.88;;;125.03;;
22378;SDS011;11357;49.990;7.370;2023-09-07T00:47:38;288.90;;;149.57;;
22378;SDS011;11357;49.990;7.370;2023-09-07T00:50:04;126.82;;;63.80;;
22378;SDS011;11357;49.990;7.370;2023-09-07T00:52:31;149.40;;;59.63;;
22378;SDS011;11357;49.990;7.370;2023-09-07T00:54:57;106.82;;;44.88;;
22378;SDS011;11357;49.990;7.370;2023-09-07T00:57:24;72.47;;;33.67;;
22378;SDS011;11357;49.990;7.370;2023-09-07T00:59:50;125.15;;;63.28;;
22378;SDS011;11357;49.990;7.370;2023-09-07T01:02:16;99.70;;;47.47;;
22378;SDS011;11357;49.990;7.370;2023-09-07T01:04:41;113.25;;;49.72;;
22378;SDS011;11357;49.990;7.370;2023-09-07T01:09:45;162.07;;;57.75;;
22378;SDS011;11357;49.990;7.370;2023-09-07T01:12:17;73.18;;;41.13;;
22378;SDS011;11357;49.990;7.370;2023-09-07T01:14:42;99.80;;;45.20;;
22378;SDS011;11357;49.990;7.370;2023-09-07T01:17:09;144.48;;;63.22;;
22378;SDS011;11357;49.990;7.370;2023-09-07T01:19:36;112.50;;;59.97;;
22378;SDS011;11357;49.990;7.370;2023-09-07T01:22:02;136.55;;;55.88;;
22378;SDS011;11357;49.990;7.370;2023-09-07T01:24:28;205.90;;;105.13;;
22378;SDS011;11357;49.990;7.370;2023-09-07T01:26:56;289.20;;;146.60;;
22378;SDS011;11357;49.990;7.370;2023-09-07T01:29:23;139.82;;;66.63;;
22378;SDS011;11357;49.990;7.370;2023-09-07T01:31:48;126.45;;;52.03;;
22378;SDS011;11357;49.990;7.370;2023-09-07T01:34:14;112.75;;;63.45;;
22378;SDS011;11357;49.990;7.370;2023-09-07T01:36:40;98.03;;;38.05;;
22378;SDS011;11357;49.990;7.370;2023-09-07T01:39:05;104.68;;;38.15;;
22378;SDS011;11357;49.990;7.370;2023-09-07T01:41:31;164.18;;;83.60;;
22378;SDS011;11357;49.990;7.370;2023-09-07T01:43:58;148.75;;;78.43;;
22378;SDS011;11357;49.990;7.370;2023-09-07T01:51:52;272.73;;;133.30;;
22378;SDS011;11357;49.990;7.370;2023-09-07T01:54:18;194.73;;;107.40;;
22378;SDS011;11357;49.990;7.370;2023-09-07T01:56:43;192.95;;;82.60;;
22378;SDS011;11357;49.990;7.370;2023-09-07T01:59:10;202.07;;;91.07;;
22378;SDS011;11357;49.990;7.370;2023-09-07T02:01:35;183.38;;;73.05;;
22378;SDS011;11357;49.990;7.370;2023-09-07T02:04:02;158.80;;;61.92;;
22378;SDS011;11357;49.990;7.370;2023-09-07T02:06:28;137.10;;;67.55;;
22378;SDS011;11357;49.990;7.370;2023-09-07T02:08:54;144.65;;;61.03;;
22378;SDS011;11357;49.990;7.370;2023-09-07T02:11:19;114.50;;;41.65;;
22378;SDS011;11357;49.990;7.370;2023-09-07T02:13:46;61.28;;;23.83;;
22378;SDS011;11357;49.990;7.370;2023-09-07T02:16:12;93.13;;;46.65;;
22378;SDS011;11357;49.990;7.370;2023-09-07T02:18:38;80.05;;;21.38;;
22378;SDS011;11357;49.990;7.370;2023-09-07T02:21:08;52.17;;;17.73;;
22378;SDS011;11357;49.990;7.370;2023-09-07T02:23:34;45.13;;;17.25;;
22378;SDS011;11357;49.990;7.370;2023-09-07T02:26:02;35.03;;;12.82;;
22378;SDS011;11357;49.990;7.370;2023-09-07T02:28:29;44.83;;;11.82;;
22378;SDS011;11357;49.990;7.370;2023-09-07T02:30:55;42.15;;;12.13;;
22378;SDS011;11357;49.990;7.370;2023-09-07T02:33:27;43.13;;;10.50;;
22378;SDS011;11357;49.990;7.370;2023-09-07T02:35:53;51.28;;;13.13;;
22378;SDS011;11357;49.990;7.370;2023-09-07T02:38:19;32.97;;;10.23;;
22378;SDS011;11357;49.990;7.370;2023-09-07T02:40:44;37.33;;;12.50;;
22378;SDS011;11357;49.990;7.370;2023-09-07T02:43:10;63.23;;;15.90;;
22378;SDS011;11357;49.990;7.370;2023-09-07T02:45:37;39.77;;;12.00;;
22378;SDS011;11357;49.990;7.370;2023-09-07T02:48:03;95.45;;;27.85;;
22378;SDS011;11357;49.990;7.370;2023-09-07T02:50:32;74.47;;;22.85;;
22378;SDS011;11357;49.990;7.370;2023-09-07T02:52:59;58.87;;;20.80;;
22378;SDS011;11357;49.990;7.370;2023-09-07T02:55:28;58.97;;;17.80;;
22378;SDS011;11357;49.990;7.370;2023-09-07T02:57:55;53.57;;;24.80;;
22378;SDS011;11357;49.990;7.370;2023-09-07T03:00:22;61.20;;;23.83;;
22378;SDS011;11357;49.990;7.370;2023-09-07T03:02:47;83.00;;;20.13;;
22378;SDS011;11357;49.990;7.370;2023-09-07T03:05:14;62.73;;;21.67;;
22378;SDS011;11357;49.990;7.370;2023-09-07T03:07:40;82.13;;;28.33;;
22378;SDS011;11357;49.990;7.370;2023-09-07T03:10:05;62.20;;;20.87;;
22378;SDS011;11357;49.990;7.370;2023-09-07T03:12:31;58.27;;;26.57;;
22378;SDS011;11357;49.990;7.370;2023-09-07T03:14:57;81.97;;;24.53;;
22378;SDS011;11357;49.990;7.370;2023-09-07T03:17:23;64.22;;;18.90;;
22378;SDS011;11357;49.990;7.370;2023-09-07T03:19:48;55.22;;;22.35;;
22378;SDS011;11357;49.990;7.370;2023-09-07T03:22:14;55.30;;;13.83;;
22378;SDS011;11357;49.990;7.370;2023-09-07T03:24:40;78.87;;;30.67;;
22378;SDS011;11357;49.990;7.370;2023-09-07T03:27:06;50.60;;;22.57;;
22378;SDS011;11357;49.990;7.370;2023-09-07T03:29:31;84.22;;;28.33;;
22378;SDS011;11357;49.990;7.370;2023-09-07T03:31:59;80.27;;;31.67;;
22378;SDS011;11357;49.990;7.370;2023-09-07T03:34:25;86.27;;;28.77;;
22378;SDS011;11357;49.990;7.370;2023-09-07T03:36:51;94.90;;;24.93;;
22378;SDS011;11357;49.990;7.370;2023-09-07T03:39:16;76.13;;;26.77;;
22378;SDS011;11357;49.990;7.370;2023-09-07T03:41:43;56.40;;;19.27;;
22378;SDS011;11357;49.990;7.370;2023-09-07T03:44:09;41.87;;;19.00;;
22378;SDS011;11357;49.990;7.370;2023-09-07T03:46:35;62.83;;;23.10;;
22378;SDS011;11357;49.990;7.370;2023-09-07T03:49:01;62.80;;;17.60;;
22378;SDS011;11357;49.990;7.370;2023-09-07T03:51:27;63.08;;;21.65;;
22378;SDS011;11357;49.990;7.370;2023-09-07T03:53:52;48.42;;;17.60;;
22378;SDS011;11357;49.990;7.370;2023-09-07T03:56:18;73.60;;;22.27;;
22378;SDS011;11357;49.990;7.370;2023-09-07T03:58:44;64.87;;;16.03;;
22378;SDS011;11357;49.990;7.370;2023-09-07T04:01:12;76.90;;;21.30;;
22378;SDS011;11357;49.990;7.370;2023-09-07T04:03:38;40.77;;;11.83;;
22378;SDS011;11357;49.990;7.370;2023-09-07T04:06:05;35.87;;;12.27;;
22378;SDS011;11357;49.990;7.370;2023-09-07T04:08:31;46.25;;;15.32;;
22378;SDS011;11357;49.990;7.370;2023-09-07T04:10:57;60.72;;;15.45;;
22378;SDS011;11357;49.990;7.370;2023-09-07T04:13:22;47.00;;;13.63;;
22378;SDS011;11357;49.990;7.370;2023-09-07T04:15:48;49.57;;;15.23;;
22378;SDS011;11357;49.990;7.370;2023-09-07T04:18:14;38.77;;;13.97;;
22378;SDS011;11357;49.990;7.370;2023-09-07T04:20:41;45.55;;;13.68;;
22378;SDS011;11357;49.990;7.370;2023-09-07T04:23:07;42.40;;;15.87;;
22378;SDS011;11357;49.990;7.370;2023-09-07T04:25:33;18.95;;;9.77;;
22378;SDS011;11357;49.990;7.370;2023-09-07T04:27:58;41.50;;;12.40;;
22378;SDS011;11357;49.990;7.370;2023-09-07T04:30:25;45.17;;;13.70;;
22378;SDS011;11357;49.990;7.370;2023-09-07T04:32:50;35.33;;;11.23;;
22378;SDS011;11357;49.990;7.370;2023-09-07T04:35:16;46.65;;;15.25;;
22378;SDS011;11357;49.990;7.370;2023-09-07T04:37:42;30.87;;;10.73;;
22378;SDS011;11357;49.990;7.370;2023-09-07T04:40:10;45.60;;;12.73;;
22378;SDS011;11357;49.990;7.370;2023-09-07T04:42:36;43.22;;;13.63;;
22378;SDS011;11357;49.990;7.370;2023-09-07T04:45:04;34.00;;;10.02;;
22378;SDS011;11357;49.990;7.370;2023-09-07T04:47:30;38.87;;;11.10;;
22378;SDS011;11357;49.990;7.370;2023-09-07T04:49:57;33.03;;;10.68;;
22378;SDS011;11357;49.990;7.370;2023-09-07T04:52:22;36.30;;;13.40;;
22378;SDS011;11357;49.990;7.370;2023-09-07T04:54:48;34.97;;;12.77;;
22378;SDS011;11357;49.990;7.370;2023-09-07T04:57:16;16.27;;;12.03;;
22378;SDS011;11357;49.990;7.370;2023-09-07T04:59:45;44.33;;;11.77;;
22378;SDS011;11357;49.990;7.370;2023-09-07T05:02:11;30.93;;;13.80;;
22378;SDS011;11357;49.990;7.370;2023-09-07T05:04:37;46.97;;;12.02;;
22378;SDS011;11357;49.990;7.370;2023-09-07T05:07:03;51.07;;;12.53;;
22378;SDS011;11357;49.990;7.370;2023-09-07T05:09:29;70.63;;;15.83;;
22378;SDS011;11357;49.990;7.370;2023-09-07T05:11:55;34.67;;;12.53;;
22378;SDS011;11357;49.990;7.370;2023-09-07T05:14:22;71.03;;;18.10;;
22378;SDS011;11357;49.990;7.370;2023-09-07T05:16:48;38.10;;;13.87;;
22378;SDS011;11357;49.990;7.370;2023-09-07T05:19:14;49.03;;;13.50;;
22378;SDS011;11357;49.990;7.370;2023-09-07T05:21:40;46.93;;;14.47;;
22378;SDS011;11357;49.990;7.370;2023-09-07T05:24:05;33.63;;;13.30;;
22378;SDS011;11357;49.990;7.370;2023-09-07T05:26:31;62.43;;;18.37;;
22378;SDS011;11357;49.990;7.370;2023-09-07T05:28:57;36.58;;;13.68;;
22378;SDS011;11357;49.990;7.370;2023-09-07T05:31:22;41.43;;;14.43;;
22378;SDS011;11357;49.990;7.370;2023-09-07T05:33:48;33.08;;;14.57;;
22378;SDS011;11357;49.990;7.370;2023-09-07T05:36:14;45.20;;;12.93;;
22378;SDS011;11357;49.990;7.370;2023-09-07T05:38:40;76.73;;;20.13;;
22378;SDS011;11357;49.990;7.370;2023-09-07T05:41:05;75.83;;;16.77;;
22378;SDS011;11357;49.990;7.370;2023-09-07T05:43:32;43.57;;;16.10;;
22378;SDS011;11357;49.990;7.370;2023-09-07T05:45:57;14.63;;;11.90;;
22378;SDS011;11357;49.990;7.370;2023-09-07T05:48:23;50.90;;;16.53;;
22378;SDS011;11357;49.990;7.370;2023-09-07T05:50:49;46.50;;;14.87;;
22378;SDS011;11357;49.990;7.370;2023-09-07T05:53:14;49.87;;;15.90;;
22378;SDS011;11357;49.990;7.370;2023-09-07T05:55:40;44.55;;;11.10;;
22378;SDS011;11357;49.990;7.370;2023-09-07T05:58:06;61.50;;;17.37;;
22378;SDS011;11357;49.990;7.370;2023-09-07T06:00:36;53.60;;;17.05;;
22378;SDS011;11357;49.990;7.370;2023-09-07T06:03:04;74.50;;;23.97;;
22378;SDS011;11357;49.990;7.370;2023-09-07T06:05:30;61.00;;;20.20;;
22378;SDS011;11357;49.990;7.370;2023-09-07T06:07:56;182.73;;;28.80;;
22378;SDS011;11357;49.990;7.370;2023-09-07T06:10:22;64.47;;;20.88;;
22378;SDS011;11357;49.990;7.370;2023-09-07T06:12:48;88.43;;;23.63;;
22378;SDS011;11357;49.990;7.370;2023-09-07T06:15:14;79.18;;;25.83;;
22378;SDS011;11357;49.990;7.370;2023-09-07T06:17:40;71.00;;;28.55;;
22378;SDS011;11357;49.990;7.370;2023-09-07T06:20:05;83.13;;;31.67;;
22378;SDS011;11357;49.990;7.370;2023-09-07T06:22:32;95.60;;;35.67;;
22378;SDS011;11357;49.990;7.370;2023-09-07T06:24:57;64.97;;;21.35;;
22378;SDS011;11357;49.990;7.370;2023-09-07T06:27:23;112.40;;;30.75;;
22378;SDS011;11357;49.990;7.370;2023-09-07T06:29:49;85.88;;;27.45;;
22378;SDS011;11357;49.990;7.370;2023-09-07T06:32:15;90.22;;;31.52;;
22378;SDS011;11357;49.990;7.370;2023-09-07T06:34:41;136.43;;;44.97;;
22378;SDS011;11357;49.990;7.370;2023-09-07T06:37:07;117.15;;;45.63;;
22378;SDS011;11357;49.990;7.370;2023-09-07T06:39:33;90.13;;;32.58;;
22378;SDS011;11357;49.990;7.370;2023-09-07T06:41:59;187.80;;;45.58;;
22378;SDS011;11357;49.990;7.370;2023-09-07T06:44:24;118.75;;;34.05;;
22378;SDS011;11357;49.990;7.370;2023-09-07T06:46:50;157.05;;;50.15;;
22378;SDS011;11357;49.990;7.370;2023-09-07T06:49:16;143.93;;;61.33;;
22378;SDS011;11357;49.990;7.370;2023-09-07T06:51:41;167.02;;;49.78;;
22378;SDS011;11357;49.990;7.370;2023-09-07T06:54:07;145.73;;;53.30;;
22378;SDS011;11357;49.990;7.370;2023-09-07T06:56:32;342.50;;;80.05;;
22378;SDS011;11357;49.990;7.370;2023-09-07T06:58:59;228.43;;;68.32;;
22378;SDS011;11357;49.990;7.370;2023-09-07T07:01:25;213.35;;;75.00;;
22378;SDS011;11357;49.990;7.370;2023-09-07T07:03:51;146.93;;;47.40;;
22378;SDS011;11357;49.990;7.370;2023-09-07T07:06:18;241.07;;;57.88;;
22378;SDS011;11357;49.990;7.370;2023-09-07T07:08:43;437.30;;;130.10;;
22378;SDS011;11357;49.990;7.370;2023-09-07T07:11:09;220.30;;;90.85;;
22378;SDS011;11357;49.990;7.370;2023-09-07T07:13:35;256.75;;;129.48;;
22378;SDS011;11357;49.990;7.370;2023-09-07T07:16:01;441.60;;;165.98;;
22378;SDS011;11357;49.990;7.370;2023-09-07T07:18:28;395.65;;;109.68;;
22378;SDS011;11357;49.990;7.370;2023-09-07T07:20:54;538.47;;;244.38;;
22378;SDS011;11357;49.990;7.370;2023-09-07T07:23:20;469.05;;;170.13;;
22378;SDS011;11357;49.990;7.370;2023-09-07T07:25:45;440.23;;;129.32;;
22378;SDS011;11357;49.990;7.370;2023-09-07T07:28:11;516.50;;;160.68;;
22378;SDS011;11357;49.990;7.370;2023-09-07T07:30:38;379.13;;;140.63;;
22378;SDS011;11357;49.990;7.370;2023-09-07T07:33:07;379.25;;;159.98;;
22378;SDS011;11357;49.990;7.370;2023-09-07T07:35:34;906.83;;;451.80;;
22378;SDS011;11357;49.990;7.370;2023-09-07T07:38:00;420.48;;;267.92;;
22378;SDS011;11357;49.990;7.370;2023-09-07T07:40:26;746.70;;;359.73;;
22378;SDS011;11357;49.990;7.370;2023-09-07T07:42:52;253.90;;;146.85;;
22378;SDS011;11357;49.990;7.370;2023-09-07T07:45:18;657.95;;;421.83;;
22378;SDS011;11357;49.990;7.370;2023-09-07T07:47:45;1644.70;;;775.58;;
22378;SDS011;11357;49.990;7.370;2023-09-07T07:50:11;803.13;;;424.15;;
22378;SDS011;11357;49.990;7.370;2023-09-07T07:52:37;1110.63;;;466.88;;
22378;SDS011;11357;49.990;7.370;2023-09-07T07:55:02;1999.90;;;999.90;;
22378;SDS011;11357;49.990;7.370;2023-09-07T07:57:28;593.72;;;472.85;;
22378;SDS011;11357;49.990;7.370;2023-09-07T07:59:55;1965.50;;;435.15;;
22378;SDS011;11357;49.990;7.370;2023-09-07T08:02:21;1999.90;;;784.65;;
22378;SDS011;11357;49.990;7.370;2023-09-07T08:04:47;906.05;;;248.68;;
22378;SDS011;11357;49.990;7.370;2023-09-07T08:07:12;1999.90;;;612.67;;
22378;SDS011;11357;49.990;7.370;2023-09-07T08:09:38;1999.90;;;544.28;;
22378;SDS011;11357;49.990;7.370;2023-09-07T08:12:04;1572.60;;;753.50;;
22378;SDS011;11357;49.990;7.370;2023-09-07T08:14:31;1982.57;;;831.15;;
22378;SDS011;11357;49.990;7.370;2023-09-07T08:16:57;1438.93;;;181.00;;
22378;SDS011;11357;49.990;7.370;2023-09-07T08:19:23;1999.90;;;999.90;;
22378;SDS011;11357;49.990;7.370;2023-09-07T08:21:49;1970.72;;;449.70;;
22378;SDS011;11357;49.990;7.370;2023-09-07T08:24:15;1999.90;;;701.05;;
22378;SDS011;11357;49.990;7.370;2023-09-07T08:26:41;1999.90;;;576.05;;
22378;SDS011;11357;49.990;7.370;2023-09-07T08:29:07;1662.53;;;165.05;;
22378;SDS011;11357;49.990;7.370;2023-09-07T08:31:37;1997.45;;;312.00;;
22378;SDS011;11357;49.990;7.370;2023-09-07T08:34:04;1579.65;;;399.48;;
22378;SDS011;11357;49.990;7.370;2023-09-07T08:36:31;1999.90;;;656.60;;
22378;SDS011;11357;49.990;7.370;2023-09-07T08:38:59;1999.90;;;607.40;;
22378;SDS011;11357;49.990;7.370;2023-09-07T08:41:28;1999.90;;;757.40;;
22378;SDS011;11357;49.990;7.370;2023-09-07T08:43:54;1859.13;;;609.55;;
22378;SDS011;11357;49.990;7.370;2023-09-07T08:46:22;1859.18;;;385.05;;
22378;SDS011;11357;49.990;7.370;2023-09-07T08:48:49;1999.90;;;861.80;;
22378;SDS011;11357;49.990;7.370;2023-09-07T08:51:15;1990.97;;;486.42;;
22378;SDS011;11357;49.990;7.370;2023-09-07T08:53:42;1476.40;;;385.63;;
22378;SDS011;11357;49.990;7.370;2023-09-07T08:56:11;1999.90;;;999.90;;
22378;SDS011;11357;49.990;7.370;2023-09-07T08:58:37;1999.90;;;999.90;;
22378;SDS011;11357;49.990;7.370;2023-09-07T09:01:05;1999.90;;;999.90;;
22378;SDS011;11357;49.990;7.370;2023-09-07T09:03:31;1999.90;;;999.90;;
22378;SDS011;11357;49.990;7.370;2023-09-07T09:05:56;1376.20;;;579.67;;
22378;SDS011;11357;49.990;7.370;2023-09-07T09:08:22;1999.90;;;999.90;;
22378;SDS011;11357;49.990;7.370;2023-09-07T09:10:57;1999.90;;;999.90;;
22378;SDS011;11357;49.990;7.370;2023-09-07T09:13:29;1999.90;;;999.90;;
22378;SDS011;11357;49.990;7.370;2023-09-07T09:15:56;1999.90;;;999.90;;
22378;SDS011;11357;49.990;7.370;2023-09-07T09:18:23;1999.90;;;999.90;;
22378;SDS011;11357;49.990;7.370;2023-09-07T09:20:51;1999.90;;;999.90;;
22378;SDS011;11357;49.990;7.370;2023-09-07T09:23:16;1999.90;;;999.90;;
22378;SDS011;11357;49.990;7.370;2023-09-07T09:25:42;1999.90;;;999.90;;
22378;SDS011;11357;49.990;7.370;2023-09-07T09:28:08;1999.90;;;999.90;;
22378;SDS011;11357;49.990;7.370;2023-09-07T09:30:35;1999.90;;;999.90;;
22378;SDS011;11357;49.990;7.370;2023-09-07T09:33:02;1999.90;;;999.90;;
22378;SDS011;11357;49.990;7.370;2023-09-07T09:35:30;1999.90;;;999.90;;
22378;SDS011;11357;49.990;7.370;2023-09-07T09:38:00;1999.90;;;999.90;;
22378;SDS011;11357;49.990;7.370;2023-09-07T09:40:29;1999.90;;;999.90;;
22378;SDS011;11357;49.990;7.370;2023-09-07T09:43:02;1999.90;;;999.90;;
22378;SDS011;11357;49.990;7.370;2023-09-07T09:45:28;1999.90;;;999.90;;
22378;SDS011;11357;49.990;7.370;2023-09-07T09:47:54;1999.90;;;999.90;;
22378;SDS011;11357;49.990;7.370;2023-09-07T09:50:27;1999.90;;;999.90;;
22378;SDS011;11357;49.990;7.370;2023-09-07T09:52:53;1999.90;;;999.90;;
22378;SDS011;11357;49.990;7.370;2023-09-07T09:55:19;1999.90;;;999.90;;
22378;SDS011;11357;49.990;7.370;2023-09-07T09:57:45;1999.90;;;999.90;;
22378;SDS011;11357;49.990;7.370;2023-09-07T10:00:11;1999.90;;;999.90;;
22378;SDS011;11357;49.990;7.370;2023-09-07T10:03:10;1999.90;;;999.90;;
22378;SDS011;11357;49.990;7.370;2023-09-07T10:05:39;1999.90;;;999.90;;
22378;SDS011;11357;49.990;7.370;2023-09-07T10:08:08;1999.90;;;999.90;;
22378;SDS011;11357;49.990;7.370;2023-09-07T10:10:37;1999.90;;;999.90;;
22378;SDS011;11357;49.990;7.370;2023-09-07T10:13:04;1999.90;;;999.90;;
22378;SDS011;11357;49.990;7.370;2023-09-07T10:15:31;1999.90;;;999.90;;
22378;SDS011;11357;49.990;7.370;2023-09-07T10:18:13;1999.90;;;999.90;;
22378;SDS011;11357;49.990;7.370;2023-09-07T10:23:13;1999.90;;;999.90;;
22378;SDS011;11357;49.990;7.370;2023-09-07T10:25:40;1999.90;;;999.90;;
22378;SDS011;11357;49.990;7.370;2023-09-07T10:28:05;1999.90;;;999.90;;
22378;SDS011;11357;49.990;7.370;2023-09-07T10:30:42;1999.90;;;999.90;;
22378;SDS011;11357;49.990;7.370;2023-09-07T10:33:18;1999.90;;;999.90;;
22378;SDS011;11357;49.990;7.370;2023-09-07T10:35:45;1999.90;;;999.90;;
22378;SDS011;11357;49.990;7.370;2023-09-07T10:38:13;1999.90;;;999.90;;
22378;SDS011;11357;49.990;7.370;2023-09-07T10:40:39;1999.90;;;999.90;;
22378;SDS011;11357;49.990;7.370;2023-09-07T10:43:06;1999.90;;;999.90;;
22378;SDS011;11357;49.990;7.370;2023-09-07T10:45:33;1999.90;;;999.90;;
22378;SDS011;11357;49.990;7.370;2023-09-07T10:47:59;1999.90;;;999.90;;
22378;SDS011;11357;49.990;7.370;2023-09-07T10:50:25;1999.90;;;999.90;;
22378;SDS011;11357;49.990;7.370;2023-09-07T10:52:50;1999.90;;;999.90;;
22378;SDS011;11357;49.990;7.370;2023-09-07T10:55:16;1999.90;;;999.90;;
22378;SDS011;11357;49.990;7.370;2023-09-07T10:57:42;1999.90;;;999.90;;
22378;SDS011;11357;49.990;7.370;2023-09-07T11:00:10;1999.90;;;999.90;;
22378;SDS011;11357;49.990;7.370;2023-09-07T11:02:40;1999.90;;;999.90;;
22378;SDS011;11357;49.990;7.370;2023-09-07T11:05:06;1999.90;;;999.90;;
22378;SDS011;11357;49.990;7.370;2023-09-07T11:07:33;1999.90;;;999.90;;
22378;SDS011;11357;49.990;7.370;2023-09-07T11:09:59;1999.90;;;999.90;;
22378;SDS011;11357;49.990;7.370;2023-09-07T11:12:25;1999.90;;;999.90;;
22378;SDS011;11357;49.990;7.370;2023-09-07T11:14:51;1999.90;;;999.90;;
22378;SDS011;11357;49.990;7.370;2023-09-07T11:17:18;1999.90;;;999.90;;
22378;SDS011;11357;49.990;7.370;2023-09-07T11:19:43;1999.90;;;999.90;;
22378;SDS011;11357;49.990;7.370;2023-09-07T11:22:10;1999.90;;;999.90;;
22378;SDS011;11357;49.990;7.370;2023-09-07T11:24:36;1999.90;;;999.90;;
22378;SDS011;11357;49.990;7.370;2023-09-07T11:27:02;1999.90;;;999.90;;
22378;SDS011;11357;49.990;7.370;2023-09-07T11:29:30;1999.90;;;999.90;;
22378;SDS011;11357;49.990;7.370;2023-09-07T11:32:06;1999.90;;;999.90;;
22378;SDS011;11357;49.990;7.370;2023-09-07T11:34:33;1999.90;;;999.90;;
22378;SDS011;11357;49.990;7.370;2023-09-07T11:37:01;1999.90;;;999.90;;
22378;SDS011;11357;49.990;7.370;2023-09-07T11:39:28;1999.90;;;999.90;;
22378;SDS011;11357;49.990;7.370;2023-09-07T11:41:53;1999.90;;;999.90;;
22378;SDS011;11357;49.990;7.370;2023-09-07T11:44:19;1999.90;;;999.90;;
22378;SDS011;11357;49.990;7.370;2023-09-07T11:46:45;1999.90;;;999.90;;
22378;SDS011;11357;49.990;7.370;2023-09-07T11:49:11;1999.90;;;999.90;;
22378;SDS011;11357;49.990;7.370;2023-09-07T11:51:37;1999.90;;;999.90;;
22378;SDS011;11357;49.990;7.370;2023-09-07T11:54:03;1999.90;;;999.90;;
22378;SDS011;11357;49.990;7.370;2023-09-07T11:56:29;1999.90;;;999.90;;
22378;SDS011;11357;49.990;7.370;2023-09-07T11:58:55;1999.90;;;999.90;;
22378;SDS011;11357;49.990;7.370;2023-09-07T12:01:21;1999.90;;;999.90;;
22378;SDS011;11357;49.990;7.370;2023-09-07T12:03:47;1999.90;;;999.90;;
22378;SDS011;11357;49.990;7.370;2023-09-07T12:06:13;1999.90;;;999.90;;
22378;SDS011;11357;49.990;7.370;2023-09-07T12:08:41;1999.90;;;999.90;;
22378;SDS011;11357;49.990;7.370;2023-09-07T12:11:22;1999.90;;;999.90;;
22378;SDS011;11357;49.990;7.370;2023-09-07T12:13:48;1999.90;;;999.90;;
22378;SDS011;11357;49.990;7.370;2023-09-07T12:16:14;1999.90;;;999.90;;
22378;SDS011;11357;49.990;7.370;2023-09-07T12:18:39;1999.90;;;999.90;;
22378;SDS011;11357;49.990;7.370;2023-09-07T12:21:05;1999.90;;;999.90;;
22378;SDS011;11357;49.990;7.370;2023-09-07T12:23:31;1999.90;;;999.90;;
22378;SDS011;11357;49.990;7.370;2023-09-07T12:25:56;1999.90;;;999.90;;
22378;SDS011;11357;49.990;7.370;2023-09-07T12:28:22;1999.90;;;999.90;;
22378;SDS011;11357;49.990;7.370;2023-09-07T12:30:48;1999.90;;;999.90;;
22378;SDS011;11357;49.990;7.370;2023-09-07T12:33:14;1999.90;;;999.90;;
22378;SDS011;11357;49.990;7.370;2023-09-07T12:35:39;1999.90;;;999.90;;
22378;SDS011;11357;49.990;7.370;2023-09-07T12:38:05;1999.90;;;999.90;;
22378;SDS011;11357;49.990;7.370;2023-09-07T12:40:32;1999.90;;;999.90;;
22378;SDS011;11357;49.990;7.370;2023-09-07T12:42:58;1999.90;;;999.90;;
22378;SDS011;11357;49.990;7.370;2023-09-07T12:45:23;1999.90;;;999.90;;
22378;SDS011;11357;49.990;7.370;2023-09-07T12:47:49;1999.90;;;999.90;;
22378;SDS011;11357;49.990;7.370;2023-09-07T12:50:14;1999.90;;;999.90;;
22378;SDS011;11357;49.990;7.370;2023-09-07T12:52:40;1999.90;;;999.90;;
22378;SDS011;11357;49.990;7.370;2023-09-07T12:55:06;1999.90;;;999.90;;
22378;SDS011;11357;49.990;7.370;2023-09-07T12:57:32;1999.90;;;999.90;;
22378;SDS011;11357;49.990;7.370;2023-09-07T12:59:59;1999.90;;;999.90;;
22378;SDS011;11357;49.990;7.370;2023-09-07T13:02:25;1999.90;;;999.90;;
22378;SDS011;11357;49.990;7.370;2023-09-07T13:04:50;1999.90;;;999.90;;
22378;SDS011;11357;49.990;7.370;2023-09-07T13:07:16;1999.90;;;999.90;;
22378;SDS011;11357;49.990;7.370;2023-09-07T13:09:42;1999.90;;;999.90;;
22378;SDS011;11357;49.990;7.370;2023-09-07T13:12:09;1999.90;;;999.90;;
22378;SDS011;11357;49.990;7.370;2023-09-07T13:14:35;1999.90;;;999.90;;
22378;SDS011;11357;49.990;7.370;2023-09-07T13:17:01;1999.90;;;999.90;;
22378;SDS011;11357;49.990;7.370;2023-09-07T13:19:26;1999.90;;;999.90;;
22378;SDS011;11357;49.990;7.370;2023-09-07T13:21:53;1999.90;;;999.90;;
22378;SDS011;11357;49.990;7.370;2023-09-07T13:24:18;1999.90;;;999.90;;
22378;SDS011;11357;49.990;7.370;2023-09-07T13:26:46;1999.90;;;999.90;;
22378;SDS011;11357;49.990;7.370;2023-09-07T13:29:12;1999.90;;;999.90;;
22378;SDS011;11357;49.990;7.370;2023-09-07T13:31:37;1999.90;;;999.90;;
22378;SDS011;11357;49.990;7.370;2023-09-07T13:34:03;1999.90;;;999.90;;
22378;SDS011;11357;49.990;7.370;2023-09-07T13:36:29;1999.90;;;999.90;;
22378;SDS011;11357;49.990;7.370;2023-09-07T13:38:55;1999.90;;;999.90;;
22378;SDS011;11357;49.990;7.370;2023-09-07T13:41:22;1999.90;;;999.90;;
22378;SDS011;11357;49.990;7.370;2023-09-07T13:43:48;1999.90;;;999.90;;
22378;SDS011;11357;49.990;7.370;2023-09-07T13:46:14;1999.90;;;999.90;;
22378;SDS011;11357;49.990;7.370;2023-09-07T13:48:39;1999.90;;;999.90;;
22378;SDS011;11357;49.990;7.370;2023-09-07T13:51:05;1999.90;;;999.90;;
22378;SDS011;11357;49.990;7.370;2023-09-07T13:53:31;1999.90;;;999.90;;
22378;SDS011;11357;49.990;7.370;2023-09-07T13:55:56;1999.90;;;999.90;;
22378;SDS011;11357;49.990;7.370;2023-09-07T13:58:22;1999.90;;;999.90;;
22378;SDS011;11357;49.990;7.370;2023-09-07T14:00:48;1999.90;;;999.90;;
22378;SDS011;11357;49.990;7.370;2023-09-07T14:03:15;1999.90;;;999.90;;
22378;SDS011;11357;49.990;7.370;2023-09-07T14:05:41;1999.90;;;999.90;;
22378;SDS011;11357;49.990;7.370;2023-09-07T14:08:07;1999.90;;;999.90;;